Time;durP1;ratioP1;P1;durP2;ratioP2;P2;SDS_P1;SDS_P2;PMS_P1;PMS_P2;Temp;Humidity;BMP_temperature;BMP_pressure;BME280_temperature;BME280_humidity;BME280_pressure;Samples;Min_cycle;Max_cycle;Signal;HPM_P1;HPM_P2
2021/04/14 00:01:09;;;;;;;7.30;4.83;;;-0.20;84.80;;;;;;5045301;28;20518;-58
2021/04/14 00:03:35;;;;;;;5.80;4.67;;;-0.20;84.80;;;;;;5034735;28;20192;-58
2021/04/14 00:06:02;;;;;;;7.80;5.27;;;-0.20;84.80;;;;;;5027908;28;20886;-58
2021/04/14 00:08:30;;;;;;;8.17;5.40;;;-0.20;84.50;;;;;;5034225;28;20272;-57
2021/04/14 00:10:55;;;;;;;7.40;5.90;;;-0.30;84.60;;;;;;5040438;28;20536;-58
2021/04/14 00:13:26;;;;;;;8.10;6.00;;;-0.30;85.00;;;;;;5043856;28;20431;-59
2021/04/14 00:15:56;;;;;;;7.10;4.80;;;-0.30;85.50;;;;;;5048293;28;20427;-57
2021/04/14 00:18:25;;;;;;;8.97;4.90;;;-0.30;85.70;;;;;;5042464;28;20472;-58
2021/04/14 00:20:51;;;;;;;7.10;4.90;;;-0.40;86.00;;;;;;5041262;28;20474;-58
2021/04/14 00:23:20;;;;;;;8.90;5.20;;;-0.40;86.30;;;;;;5039946;28;20441;-58
2021/04/14 00:25:47;;;;;;;6.40;4.60;;;-0.40;86.70;;;;;;5044300;28;20534;-58
2021/04/14 00:28:16;;;;;;;7.70;5.20;;;-0.40;86.90;;;;;;5043278;28;20429;-58
2021/04/14 00:30:43;;;;;;;8.27;5.50;;;-0.50;86.90;;;;;;5038466;28;20478;-58
2021/04/14 00:33:09;;;;;;;6.60;4.87;;;-0.50;87.40;;;;;;5044485;28;20419;-58
2021/04/14 00:35:35;;;;;;;11.47;5.20;;;-0.50;87.90;;;;;;5041756;28;20467;-57
2021/04/14 00:38:00;;;;;;;10.27;5.10;;;-0.60;88.10;;;;;;5039485;28;20461;-58
2021/04/14 00:40:32;;;;;;;7.20;5.20;;;-0.60;88.40;;;;;;5037093;28;20211;-58
2021/04/14 00:43:01;;;;;;;8.23;4.27;;;-0.60;88.40;;;;;;5041919;28;20169;-57
2021/04/14 00:45:28;;;;;;;7.70;4.37;;;-0.60;88.30;;;;;;5044241;28;20424;-57
2021/04/14 00:47:54;;;;;;;6.00;4.10;;;-0.60;87.90;;;;;;5040231;28;20457;-57
2021/04/14 00:50:23;;;;;;;6.33;4.30;;;-0.60;88.00;;;;;;5040296;28;20532;-58
2021/04/14 00:52:51;;;;;;;6.17;4.33;;;-0.70;88.10;;;;;;5041009;28;20178;-59
2021/04/14 00:55:19;;;;;;;6.67;4.00;;;-0.70;88.40;;;;;;5037447;28;21073;-59
2021/04/14 00:57:44;;;;;;;6.17;4.60;;;-0.70;88.50;;;;;;5038630;28;20429;-58
2021/04/14 01:00:38;;;;;;;5.40;4.40;;;-0.70;88.60;;;;;;5041004;28;20455;-59
2021/04/14 01:03:06;;;;;;;6.43;4.70;;;-0.80;89.20;;;;;;5042798;28;20272;-57
2021/04/14 01:05:33;;;;;;;7.07;4.30;;;-0.80;88.90;;;;;;5035430;28;20443;-58
2021/04/14 01:07:59;;;;;;;8.13;5.40;;;-0.80;89.00;;;;;;5040392;28;20923;-58
2021/04/14 01:10:25;;;;;;;8.43;4.90;;;-0.80;89.20;;;;;;5039564;28;21005;-58
2021/04/14 01:12:53;;;;;;;8.53;4.60;;;-0.80;89.20;;;;;;5038319;28;20430;-58
2021/04/14 01:15:23;;;;;;;8.33;4.37;;;-0.90;89.20;;;;;;5038281;28;20469;-58
2021/04/14 01:17:48;;;;;;;6.93;4.97;;;-0.90;89.60;;;;;;5039976;28;20432;-58
2021/04/14 01:20:18;;;;;;;5.93;4.70;;;-0.90;90.00;;;;;;5036252;28;20450;-57
2021/04/14 01:22:44;;;;;;;9.07;4.67;;;-1.00;89.90;;;;;;5039195;28;20455;-57
2021/04/14 01:25:17;;;;;;;9.03;5.53;;;-1.00;90.00;;;;;;5039991;28;20431;-58
2021/04/14 01:27:42;;;;;;;5.70;4.13;;;-1.00;90.10;;;;;;5039415;28;20434;-57
2021/04/14 01:30:18;;;;;;;6.77;4.47;;;-1.00;90.20;;;;;;5041171;28;20462;-58
2021/04/14 01:32:44;;;;;;;17.90;5.77;;;-1.00;90.20;;;;;;5037648;28;20251;-58
2021/04/14 01:35:12;;;;;;;9.17;5.50;;;-1.00;90.30;;;;;;5040179;28;20538;-57
2021/04/14 01:37:38;;;;;;;8.40;4.77;;;-1.10;90.30;;;;;;5038375;28;20189;-58
2021/04/14 01:40:05;;;;;;;5.20;4.30;;;-1.10;90.50;;;;;;5036718;28;20466;-57
2021/04/14 01:42:30;;;;;;;7.97;5.20;;;-1.10;90.60;;;;;;5038730;28;20428;-57
2021/04/14 01:44:56;;;;;;;5.97;4.67;;;-1.20;90.50;;;;;;5037324;28;20944;-56
2021/04/14 01:47:21;;;;;;;8.07;5.13;;;-1.20;90.60;;;;;;5036052;28;20180;-57
2021/04/14 01:49:47;;;;;;;8.93;5.90;;;-1.20;90.80;;;;;;5039724;28;20213;-57
2021/04/14 01:52:13;;;;;;;8.30;5.20;;;-1.20;90.80;;;;;;5038462;28;20405;-57
2021/04/14 01:54:38;;;;;;;8.13;5.10;;;-1.30;90.80;;;;;;5034981;28;20201;-57
2021/04/14 01:57:05;;;;;;;6.13;4.70;;;-1.30;90.70;;;;;;5035863;28;20661;-56
2021/04/14 01:59:31;;;;;;;7.47;5.40;;;-1.30;90.80;;;;;;5035084;28;20263;-57
2021/04/14 02:01:57;;;;;;;10.20;5.70;;;-1.30;91.00;;;;;;5038166;28;20485;-57
2021/04/14 02:04:22;;;;;;;6.90;4.90;;;-1.30;91.00;;;;;;5037678;28;20209;-57
2021/04/14 02:06:48;;;;;;;6.57;5.23;;;-1.40;90.70;;;;;;5034647;28;20176;-56
2021/04/14 02:09:15;;;;;;;8.70;4.80;;;-1.40;90.70;;;;;;5038241;28;20713;-57
2021/04/14 02:11:40;;;;;;;8.70;5.33;;;-1.40;90.80;;;;;;5060823;28;20228;-57
2021/04/14 02:14:09;;;;;;;7.53;5.00;;;-1.50;91.00;;;;;;5063949;28;20521;-60
2021/04/14 02:16:36;;;;;;;6.67;4.57;;;-1.50;91.00;;;;;;5059557;28;20245;-57
2021/04/14 02:19:02;;;;;;;6.50;4.63;;;-1.50;91.00;;;;;;5063408;28;20472;-57
2021/04/14 02:21:28;;;;;;;6.63;4.67;;;-1.50;91.00;;;;;;5063057;28;20477;-60
2021/04/14 02:23:55;;;;;;;6.70;4.80;;;-1.50;91.00;;;;;;5063560;28;20439;-57
2021/04/14 02:26:25;;;;;;;18.97;4.77;;;-1.60;91.10;;;;;;5041224;28;20318;-57
2021/04/14 02:28:51;;;;;;;6.30;4.70;;;-1.60;91.20;;;;;;5038463;28;20956;-57
2021/04/14 02:31:30;;;;;;;12.63;4.90;;;-1.60;91.20;;;;;;5065971;22;20502;-52
2021/04/14 02:34:07;;;;;;;8.23;5.20;;;-1.60;91.40;;;;;;5054516;28;20494;-52
2021/04/14 02:36:33;;;;;;;7.20;5.50;;;-1.60;91.30;;;;;;5052101;28;20947;-54
2021/04/14 02:38:59;;;;;;;8.63;5.10;;;-1.60;91.30;;;;;;5056361;28;20455;-52
2021/04/14 02:41:24;;;;;;;5.93;5.23;;;-1.70;91.40;;;;;;5047958;28;20534;-54
2021/04/14 02:43:53;;;;;;;8.00;5.07;;;-1.60;91.50;;;;;;5045799;28;21009;-54
2021/04/14 02:46:20;;;;;;;8.10;5.17;;;-1.70;91.50;;;;;;5049382;28;21505;-52
2021/04/14 02:48:49;;;;;;;5.40;4.77;;;-1.70;91.40;;;;;;5048322;28;20415;-54
2021/04/14 02:51:16;;;;;;;10.60;5.57;;;-1.70;91.40;;;;;;5048183;28;20519;-53
2021/04/14 02:53:42;;;;;;;6.57;4.80;;;-1.70;91.50;;;;;;5047929;28;20520;-51
2021/04/14 02:56:08;;;;;;;9.57;5.43;;;-1.70;91.50;;;;;;5045900;28;20433;-55
2021/04/14 02:58:34;;;;;;;6.70;5.27;;;-1.80;91.50;;;;;;5045146;28;20192;-55
2021/04/14 03:01:00;;;;;;;9.60;5.27;;;-1.80;91.60;;;;;;5047833;28;20283;-54
2021/04/14 03:03:27;;;;;;;6.37;4.70;;;-1.80;91.70;;;;;;5044849;28;20523;-52
2021/04/14 03:05:54;;;;;;;6.10;4.67;;;-1.80;91.80;;;;;;5045425;28;20255;-53
2021/04/14 03:08:19;;;;;;;8.13;5.17;;;-1.80;91.90;;;;;;5043359;28;20439;-55
2021/04/14 03:10:45;;;;;;;5.40;4.63;;;-1.80;91.90;;;;;;5047499;28;20983;-53
2021/04/14 03:13:11;;;;;;;8.40;4.73;;;-1.90;91.80;;;;;;5044825;28;20953;-54
2021/04/14 03:15:40;;;;;;;9.83;5.23;;;-1.90;91.90;;;;;;5047356;28;20352;-54
2021/04/14 03:18:14;;;;;;;8.90;5.70;;;-1.90;91.90;;;;;;5046639;28;20885;-53
2021/04/14 03:20:40;;;;;;;7.43;4.57;;;-2.00;91.90;;;;;;5045753;28;20452;-53
2021/04/14 03:23:06;;;;;;;6.20;5.37;;;-2.00;91.80;;;;;;5048121;28;20832;-54
2021/04/14 03:25:32;;;;;;;9.20;5.10;;;-2.00;91.90;;;;;;5044279;28;20477;-54
2021/04/14 03:27:59;;;;;;;6.87;5.50;;;-2.00;92.00;;;;;;5049767;28;20529;-54
2021/04/14 03:30:25;;;;;;;6.07;4.20;;;-2.10;92.00;;;;;;5055600;28;20249;-53
2021/04/14 03:32:51;;;;;;;11.10;5.33;;;-2.10;92.20;;;;;;5052551;28;20577;-52
2021/04/14 03:35:18;;;;;;;7.20;5.60;;;-2.10;92.30;;;;;;5044038;28;20513;-53
2021/04/14 03:37:46;;;;;;;8.07;5.40;;;-2.10;92.30;;;;;;5048648;28;20204;-53
2021/04/14 03:40:12;;;;;;;7.80;5.53;;;-2.20;92.30;;;;;;5044381;28;20482;-54
2021/04/14 03:42:38;;;;;;;8.17;4.97;;;-2.20;92.50;;;;;;5047578;28;20975;-53
2021/04/14 03:45:14;;;;;;;6.43;5.13;;;-2.20;92.50;;;;;;5044011;28;20449;-54
2021/04/14 03:47:41;;;;;;;5.97;4.53;;;-2.20;92.80;;;;;;5046119;28;20499;-53
2021/04/14 03:50:09;;;;;;;10.50;6.17;;;-2.20;92.90;;;;;;5049657;28;20479;-53
2021/04/14 03:52:35;;;;;;;8.80;5.47;;;-2.20;93.00;;;;;;5053630;28;20773;-53
2021/04/14 03:55:01;;;;;;;21.57;9.70;;;-2.20;93.00;;;;;;5057056;28;20433;-52
2021/04/14 03:57:27;;;;;;;18.13;9.27;;;-2.20;92.80;;;;;;5063663;28;20713;-53
2021/04/14 03:59:52;;;;;;;12.87;5.60;;;-2.30;92.70;;;;;;5062373;28;20208;-53
2021/04/14 04:02:18;;;;;;;8.23;5.77;;;-2.30;92.60;;;;;;5055774;28;20427;-53
2021/04/14 04:04:44;;;;;;;7.00;4.90;;;-2.30;92.60;;;;;;5057779;28;20652;-53
2021/04/14 04:07:10;;;;;;;12.03;6.37;;;-2.40;92.70;;;;;;5055511;28;20180;-53
2021/04/14 04:09:35;;;;;;;9.20;5.80;;;-2.40;92.90;;;;;;5061615;28;20659;-53
2021/04/14 04:12:05;;;;;;;7.60;5.13;;;-2.50;92.80;;;;;;5051635;28;20965;-55
2021/04/14 04:14:33;;;;;;;9.40;5.30;;;-2.50;92.90;;;;;;5054162;28;20190;-54
2021/04/14 04:16:59;;;;;;;7.10;5.43;;;-2.50;93.10;;;;;;5058182;28;20506;-52
2021/04/14 04:19:25;;;;;;;10.30;5.10;;;-2.50;93.20;;;;;;5053616;28;20928;-52
2021/04/14 04:21:50;;;;;;;12.07;5.57;;;-2.50;93.20;;;;;;5059201;28;20226;-54
2021/04/14 04:24:16;;;;;;;9.50;6.03;;;-2.60;93.20;;;;;;5057153;28;20176;-49
2021/04/14 04:26:42;;;;;;;13.30;6.20;;;-2.60;93.20;;;;;;5051287;28;20335;-53
2021/04/14 04:29:07;;;;;;;8.37;5.40;;;-2.60;93.30;;;;;;5056293;28;20177;-53
2021/04/14 04:31:33;;;;;;;10.47;5.63;;;-2.60;93.40;;;;;;5058197;28;20211;-52
2021/04/14 04:33:59;;;;;;;17.13;8.53;;;-2.60;93.70;;;;;;5053838;28;20192;-54
2021/04/14 04:36:24;;;;;;;9.97;6.90;;;-2.60;93.50;;;;;;5058679;28;20259;-52
2021/04/14 04:38:50;;;;;;;9.20;5.57;;;-2.60;93.70;;;;;;5054999;28;20669;-54
2021/04/14 04:41:16;;;;;;;6.63;5.90;;;-2.60;93.40;;;;;;5055052;28;20309;-52
2021/04/14 04:43:43;;;;;;;8.13;5.20;;;-2.60;93.30;;;;;;5053109;28;20589;-52
2021/04/14 04:46:09;;;;;;;7.67;5.37;;;-2.60;93.30;;;;;;5051988;28;20221;-54
2021/04/14 04:48:34;;;;;;;9.20;5.63;;;-2.60;93.20;;;;;;5050655;28;20465;-54
2021/04/14 04:51:00;;;;;;;7.77;5.17;;;-2.60;93.20;;;;;;5051653;28;20428;-51
2021/04/14 04:53:26;;;;;;;7.00;4.77;;;-2.60;93.30;;;;;;5050356;28;20223;-52
2021/04/14 04:55:53;;;;;;;9.10;5.70;;;-2.60;93.30;;;;;;5071541;28;20566;-52
2021/04/14 04:58:19;;;;;;;9.20;5.87;;;-2.60;93.50;;;;;;5059783;28;20195;-54
2021/04/14 05:00:47;;;;;;;11.43;6.23;;;-2.60;93.30;;;;;;5051716;28;20480;-56
2021/04/14 05:03:15;;;;;;;10.77;5.83;;;-2.60;93.40;;;;;;5054308;28;20465;-54
2021/04/14 05:05:42;;;;;;;9.80;5.83;;;-2.60;93.30;;;;;;5057578;28;20965;-55
2021/04/14 05:08:09;;;;;;;12.87;5.93;;;-2.60;93.40;;;;;;5060064;28;20433;-55
2021/04/14 05:10:35;;;;;;;11.90;6.30;;;-2.60;93.50;;;;;;5055955;28;20425;-54
2021/04/14 05:13:02;;;;;;;8.73;5.70;;;-2.60;93.60;;;;;;5066105;28;20426;-54
2021/04/14 05:15:31;;;;;;;9.33;5.97;;;-2.60;93.70;;;;;;5057606;28;20494;-54
2021/04/14 05:17:56;;;;;;;9.10;5.90;;;-2.60;93.80;;;;;;5063442;28;20545;-56
2021/04/14 05:20:23;;;;;;;8.23;5.67;;;-2.50;93.70;;;;;;5052794;28;20478;-53
2021/04/14 05:22:49;;;;;;;14.40;6.00;;;-2.40;93.50;;;;;;5056201;28;20423;-55
2021/04/14 05:25:17;;;;;;;10.70;6.03;;;-2.30;93.50;;;;;;5052744;28;20470;-54
2021/04/14 05:27:43;;;;;;;14.77;6.73;;;-2.30;93.40;;;;;;5060214;28;20181;-54
2021/04/14 05:30:11;;;;;;;13.90;6.90;;;-2.20;93.40;;;;;;5061891;28;20444;-54
2021/04/14 05:32:36;;;;;;;16.23;5.80;;;-2.10;92.90;;;;;;5059265;28;20484;-56
2021/04/14 05:35:03;;;;;;;10.00;6.93;;;-2.00;92.80;;;;;;5052843;28;20899;-55
2021/04/14 05:37:28;;;;;;;16.30;8.23;;;-1.90;92.70;;;;;;5058173;28;21344;-55
2021/04/14 05:39:55;;;;;;;9.77;6.13;;;-1.90;92.60;;;;;;5069263;28;20472;-55
2021/04/14 05:42:21;;;;;;;12.70;7.23;;;-1.80;92.40;;;;;;5056326;28;20246;-55
2021/04/14 05:44:47;;;;;;;12.23;7.10;;;-1.70;92.30;;;;;;5067423;28;20410;-55
2021/04/14 05:47:13;;;;;;;16.23;8.37;;;-1.70;92.30;;;;;;5053149;28;20445;-54
2021/04/14 05:49:38;;;;;;;10.77;7.43;;;-1.60;92.20;;;;;;5057694;28;20323;-53
2021/04/14 05:52:04;;;;;;;28.13;7.27;;;-1.50;92.10;;;;;;5056758;28;20700;-55
2021/04/14 05:54:30;;;;;;;13.30;7.00;;;-1.30;92.00;;;;;;5059779;28;20205;-56
2021/04/14 05:56:57;;;;;;;11.30;7.07;;;-1.20;92.00;;;;;;5059663;28;20438;-52
2021/04/14 05:59:23;;;;;;;15.17;6.60;;;-1.10;92.00;;;;;;5058980;28;20195;-55
2021/04/14 06:01:48;;;;;;;12.33;6.27;;;-1.00;91.80;;;;;;5062132;28;21353;-52
2021/04/14 06:04:16;;;;;;;10.80;6.90;;;-0.90;91.40;;;;;;5058090;28;20183;-52
2021/04/14 06:06:42;;;;;;;23.77;7.47;;;-0.80;90.90;;;;;;5051218;28;20240;-52
2021/04/14 06:09:09;;;;;;;17.43;6.43;;;-0.80;91.00;;;;;;5052002;28;20425;-53
2021/04/14 06:11:35;;;;;;;9.63;5.43;;;-0.70;91.50;;;;;;5059511;28;20454;-51
2021/04/14 06:14:01;;;;;;;16.03;5.53;;;-0.50;91.30;;;;;;5058706;28;20448;-53
2021/04/14 06:16:27;;;;;;;19.03;6.77;;;-0.40;90.70;;;;;;5060603;28;20970;-53
2021/04/14 06:18:53;;;;;;;11.40;6.87;;;-0.30;90.40;;;;;;5052905;28;20550;-55
2021/04/14 06:21:20;;;;;;;13.70;5.90;;;-0.30;89.90;;;;;;5056694;28;20198;-54
2021/04/14 06:23:46;;;;;;;11.20;6.00;;;-0.20;89.40;;;;;;5051961;28;20501;-54
2021/04/14 06:26:18;;;;;;;10.00;6.47;;;-0.10;89.20;;;;;;5047788;28;20443;-55
2021/04/14 06:28:44;;;;;;;15.77;8.10;;;-0.10;88.10;;;;;;5049477;28;20793;-54
2021/04/14 06:31:11;;;;;;;8.23;6.40;;;0.00;88.50;;;;;;5060371;28;20469;-53
2021/04/14 06:33:39;;;;;;;13.90;6.80;;;0.00;88.30;;;;;;5051816;28;20201;-54
2021/04/14 06:36:07;;;;;;;16.43;8.33;;;0.10;88.30;;;;;;5047215;28;20452;-54
2021/04/14 06:38:39;;;;;;;14.43;8.07;;;0.20;88.30;;;;;;5042655;28;20493;-54
2021/04/14 06:41:33;;;;;;;13.17;8.13;;;0.30;88.60;;;;;;5040565;28;20520;-56
2021/04/14 06:44:23;;;;;;;18.40;7.73;;;0.50;87.70;;;;;;5052346;28;20746;-53
2021/04/14 06:46:51;;;;;;;17.80;8.10;;;0.60;85.60;;;;;;5049442;28;20435;-53
2021/04/14 06:49:29;;;;;;;12.83;7.90;;;0.70;85.70;;;;;;5052532;28;20442;-54
2021/04/14 06:52:11;;;;;;;10.73;6.67;;;0.80;85.40;;;;;;5055480;28;20831;-53
2021/04/14 06:54:42;;;;;;;12.37;7.10;;;1.00;84.40;;;;;;5049554;28;20582;-52
2021/04/14 06:57:34;;;;;;;11.47;7.00;;;1.10;84.50;;;;;;5049176;28;20438;-56
2021/04/14 06:59:59;;;;;;;18.67;6.77;;;1.30;83.80;;;;;;5045735;28;20482;-53
2021/04/14 07:02:33;;;;;;;10.80;6.40;;;1.40;82.40;;;;;;5051009;28;20456;-56
2021/04/14 07:05:09;;;;;;;9.57;5.60;;;1.50;80.90;;;;;;5055525;28;20211;-56
2021/04/14 07:07:39;;;;;;;10.50;6.53;;;1.70;80.90;;;;;;5055073;28;20438;-56
2021/04/14 07:10:30;;;;;;;26.27;6.80;;;1.80;79.40;;;;;;5050877;28;20557;-56
2021/04/14 07:13:00;;;;;;;10.63;5.47;;;1.90;79.20;;;;;;5049758;28;20434;-56
2021/04/14 07:15:27;;;;;;;13.03;6.30;;;2.00;78.80;;;;;;5057795;28;20458;-52
2021/04/14 07:18:03;;;;;;;12.10;4.80;;;2.20;78.40;;;;;;5057326;28;20438;-53
2021/04/14 07:20:47;;;;;;;6.97;5.00;;;2.30;78.40;;;;;;5055502;28;20423;-55
2021/04/14 07:23:25;;;;;;;15.93;5.10;;;2.40;74.90;;;;;;5057316;28;20415;-55
2021/04/14 07:26:00;;;;;;;8.10;4.83;;;2.40;74.60;;;;;;5055585;28;20423;-57
2021/04/14 07:29:09;;;;;;;7.87;4.80;;;2.50;76.20;;;;;;5051785;28;20493;-56
2021/04/14 07:31:42;;;;;;;16.77;5.23;;;2.60;77.00;;;;;;5048093;28;20567;-57
2021/04/14 07:34:37;;;;;;;15.63;5.60;;;2.70;76.70;;;;;;5056137;28;20462;-55
2021/04/14 07:37:11;;;;;;;8.00;4.63;;;2.90;73.40;;;;;;5055631;28;20434;-54
2021/04/14 07:39:52;;;;;;;11.07;5.30;;;3.00;71.40;;;;;;5054249;28;20446;-54
2021/04/14 07:43:16;;;;;;;6.83;4.30;;;3.10;71.70;;;;;;5055969;28;20528;-53
2021/04/14 07:45:44;;;;;;;10.20;4.17;;;3.30;69.40;;;;;;5035466;28;20537;-56
2021/04/14 07:48:17;;;;;;;8.77;4.10;;;3.50;68.00;;;;;;5033725;28;23198;-55
2021/04/14 07:50:46;;;;;;;5.20;3.73;;;3.60;66.40;;;;;;5051915;28;21033;-54
2021/04/14 07:53:36;;;;;;;11.83;4.20;;;3.60;63.10;;;;;;5057752;28;20849;-54
2021/04/14 07:56:23;;;;;;;6.00;3.60;;;3.70;63.80;;;;;;5057415;28;20926;-53
2021/04/14 07:59:04;;;;;;;6.93;3.40;;;3.80;63.30;;;;;;5059538;28;20491;-58
2021/04/14 08:01:30;;;;;;;11.10;3.30;;;4.00;62.20;;;;;;5055669;28;20451;-54
2021/04/14 08:04:13;;;;;;;6.63;3.03;;;4.10;60.20;;;;;;5058081;28;20515;-53
2021/04/14 08:06:39;;;;;;;8.70;3.80;;;4.20;59.00;;;;;;5056272;28;20174;-55
2021/04/14 08:09:19;;;;;;;10.53;3.57;;;4.40;57.40;;;;;;5052132;28;21002;-58
2021/04/14 08:11:45;;;;;;;6.70;3.07;;;4.50;56.10;;;;;;5053654;28;20986;-55
2021/04/14 08:14:18;;;;;;;9.83;3.20;;;4.70;54.70;;;;;;5055336;28;22618;-55
2021/04/14 08:16:52;;;;;;;5.93;3.10;;;4.80;52.90;;;;;;5062309;28;21338;-56
2021/04/14 08:19:17;;;;;;;8.33;3.10;;;4.70;52.00;;;;;;5065400;28;20459;-56
2021/04/14 08:22:06;;;;;;;4.60;3.37;;;4.60;52.00;;;;;;5055542;28;21063;-55
2021/04/14 08:24:50;;;;;;;8.53;3.33;;;4.40;51.00;;;;;;5054160;28;20189;-54
2021/04/14 08:27:18;;;;;;;8.00;3.00;;;4.30;50.00;;;;;;5054840;28;20425;-54
2021/04/14 08:29:47;;;;;;;7.07;3.60;;;4.20;50.00;;;;;;5056278;28;20967;-57
2021/04/14 08:32:17;;;;;;;5.73;3.50;;;4.20;50.50;;;;;;5057648;28;20827;-56
2021/04/14 08:34:56;;;;;;;5.60;2.90;;;4.20;49.60;;;;;;5054155;28;20437;-55
2021/04/14 08:37:23;;;;;;;6.87;3.77;;;4.20;49.10;;;;;;5050622;28;20541;-53
2021/04/14 08:40:04;;;;;;;14.23;4.50;;;4.30;48.70;;;;;;5055275;28;20463;-53
2021/04/14 08:42:34;;;;;;;4.90;3.07;;;4.40;48.40;;;;;;5062207;28;20570;-57
2021/04/14 08:45:06;;;;;;;9.20;4.00;;;4.40;48.00;;;;;;5053292;28;20515;-58
2021/04/14 08:47:34;;;;;;;5.37;3.20;;;4.40;47.70;;;;;;5057634;28;20449;-55
2021/04/14 08:50:18;;;;;;;3.93;3.20;;;4.50;47.20;;;;;;5056879;28;20790;-54
2021/04/14 08:52:50;;;;;;;6.63;3.50;;;4.60;46.60;;;;;;5056891;28;20455;-55
2021/04/14 08:55:17;;;;;;;3.70;3.03;;;4.70;45.70;;;;;;5054537;28;20448;-54
2021/04/14 08:57:45;;;;;;;4.10;3.43;;;4.70;45.90;;;;;;5054471;28;20511;-57
2021/04/14 09:00:11;;;;;;;4.53;2.83;;;5.00;46.80;;;;;;5055550;28;20449;-55
2021/04/14 09:02:40;;;;;;;5.90;2.90;;;5.20;45.70;;;;;;5062151;28;20445;-57
2021/04/14 09:05:09;;;;;;;3.27;2.93;;;5.40;44.40;;;;;;5060709;28;21813;-56
2021/04/14 09:07:37;;;;;;;4.00;3.30;;;5.50;43.80;;;;;;5056379;28;20421;-56
2021/04/14 09:10:10;;;;;;;7.60;3.20;;;5.60;44.10;;;;;;5066472;28;20505;-56
2021/04/14 09:12:43;;;;;;;3.30;2.80;;;5.60;43.70;;;;;;5063673;28;20464;-57
2021/04/14 09:15:14;;;;;;;4.53;3.30;;;5.60;42.80;;;;;;5057383;28;20736;-55
2021/04/14 09:17:44;;;;;;;3.90;2.83;;;5.50;42.40;;;;;;5034402;28;21091;-56
2021/04/14 09:20:24;;;;;;;5.23;2.87;;;5.50;42.90;;;;;;5047640;22;20534;-60
2021/04/14 09:23:09;;;;;;;7.27;3.10;;;5.50;43.30;;;;;;5027758;28;20428;-61
2021/04/14 09:25:50;;;;;;;4.67;3.20;;;5.40;43.30;;;;;;5037539;28;20518;-60
2021/04/14 09:28:36;;;;;;;6.73;2.77;;;5.40;43.80;;;;;;5030625;28;20467;-60
2021/04/14 09:31:13;;;;;;;9.27;3.20;;;5.40;43.60;;;;;;5017346;28;20434;-61
2021/04/14 09:33:50;;;;;;;3.90;2.70;;;5.30;43.60;;;;;;5020348;28;20430;-62
2021/04/14 09:36:29;;;;;;;5.60;3.07;;;5.20;43.50;;;;;;5027969;28;20437;-60
2021/04/14 09:39:13;;;;;;;5.07;3.07;;;5.20;43.80;;;;;;5025179;28;20468;-60
2021/04/14 09:41:39;;;;;;;4.40;3.13;;;5.20;44.10;;;;;;5015278;28;20938;-60
2021/04/14 09:44:15;;;;;;;6.40;2.73;;;5.20;44.10;;;;;;5018881;28;20492;-61
2021/04/14 09:46:57;;;;;;;9.97;3.40;;;5.10;43.00;;;;;;5021199;28;20437;-60
2021/04/14 09:49:41;;;;;;;10.43;3.50;;;5.10;42.60;;;;;;5019189;28;20454;-60
2021/04/14 09:52:22;;;;;;;10.83;3.57;;;5.10;42.40;;;;;;5017353;28;20435;-60
2021/04/14 09:54:52;;;;;;;3.47;2.90;;;5.10;42.10;;;;;;5017329;28;20481;-60
2021/04/14 09:57:25;;;;;;;3.77;2.93;;;5.10;42.10;;;;;;5024109;28;20957;-60
2021/04/14 09:59:51;;;;;;;6.70;2.30;;;5.10;42.20;;;;;;5019921;28;21010;-60
2021/04/14 10:02:19;;;;;;;6.47;3.37;;;5.10;41.30;;;;;;5019820;28;20436;-58
2021/04/14 10:04:47;;;;;;;7.23;2.50;;;5.10;41.00;;;;;;5015537;28;20438;-60
2021/04/14 10:07:23;;;;;;;5.50;3.17;;;5.10;40.80;;;;;;5016786;28;20435;-59
2021/04/14 10:09:49;;;;;;;6.70;3.13;;;5.20;41.30;;;;;;5036477;28;20462;-60
2021/04/14 10:12:26;;;;;;;6.67;3.70;;;5.20;41.40;;;;;;5018816;28;20447;-60
2021/04/14 10:14:54;;;;;;;7.30;2.83;;;5.20;41.50;;;;;;5019441;28;20440;-59
2021/04/14 10:17:21;;;;;;;6.00;3.80;;;5.20;42.10;;;;;;5019950;28;20447;-60
2021/04/14 10:19:56;;;;;;;5.60;3.90;;;5.30;42.90;;;;;;5022211;28;20616;-61
2021/04/14 10:22:29;;;;;;;10.10;5.03;;;5.40;43.00;;;;;;5029869;28;20469;-60
2021/04/14 10:25:04;;;;;;;6.40;4.07;;;5.40;42.70;;;;;;5017529;28;20471;-60
2021/04/14 10:27:31;;;;;;;5.27;3.40;;;5.50;41.70;;;;;;5023673;28;20438;-58
2021/04/14 10:30:00;;;;;;;9.33;2.97;;;5.50;41.60;;;;;;5027291;28;20458;-59
2021/04/14 10:32:27;;;;;;;3.30;3.00;;;5.50;41.30;;;;;;5029352;28;20439;-59
2021/04/14 10:34:53;;;;;;;3.80;3.07;;;5.50;41.30;;;;;;5026625;28;20975;-59
2021/04/14 10:37:25;;;;;;;4.67;3.23;;;5.50;41.50;;;;;;5027789;28;20496;-60
2021/04/14 10:39:53;;;;;;;6.00;3.27;;;5.60;42.00;;;;;;5018552;28;20470;-58
2021/04/14 10:42:28;;;;;;;8.67;3.13;;;5.60;42.20;;;;;;5029144;28;20422;-59
2021/04/14 10:45:01;;;;;;;3.90;3.10;;;5.60;42.40;;;;;;5041008;28;20602;-61
2021/04/14 10:47:29;;;;;;;4.73;2.80;;;5.70;42.50;;;;;;5025800;28;20430;-59
2021/04/14 10:50:19;;;;;;;6.33;3.43;;;5.70;41.10;;;;;;5028269;28;21124;-60
2021/04/14 10:52:49;;;;;;;5.10;3.27;;;5.60;40.50;;;;;;5027242;28;21099;-60
2021/04/14 10:55:17;;;;;;;5.33;3.17;;;5.60;40.90;;;;;;5025599;28;20451;-59
2021/04/14 10:57:47;;;;;;;5.57;3.10;;;5.70;41.90;;;;;;5020309;28;20435;-59
2021/04/14 11:00:25;;;;;;;9.03;3.50;;;5.70;41.80;;;;;;5028683;28;20470;-59
2021/04/14 11:02:52;;;;;;;4.60;3.00;;;5.70;41.30;;;;;;5025053;28;20441;-59
2021/04/14 11:05:22;;;;;;;10.43;3.20;;;5.70;41.20;;;;;;5022755;28;20776;-59
2021/04/14 11:07:50;;;;;;;9.97;3.20;;;5.80;41.30;;;;;;5027828;28;20480;-58
2021/04/14 11:10:33;;;;;;;9.30;4.30;;;5.90;41.20;;;;;;5032824;28;20449;-59
2021/04/14 11:12:59;;;;;;;7.17;3.70;;;5.90;40.50;;;;;;5021718;28;20885;-59
2021/04/14 11:15:32;;;;;;;4.77;3.50;;;6.00;40.50;;;;;;5028217;28;20442;-60
2021/04/14 11:18:05;;;;;;;5.00;3.17;;;6.10;40.60;;;;;;5026782;28;20427;-60
2021/04/14 11:20:49;;;;;;;5.13;3.23;;;6.10;40.70;;;;;;5026730;28;20557;-60
2021/04/14 11:23:29;;;;;;;3.57;2.93;;;6.20;40.80;;;;;;5023400;28;20875;-58
2021/04/14 11:26:20;;;;;;;9.00;3.10;;;6.20;40.70;;;;;;5022115;28;20430;-59
2021/04/14 11:28:56;;;;;;;5.70;2.90;;;6.30;41.10;;;;;;5029304;28;20469;-59
2021/04/14 11:31:38;;;;;;;5.33;3.10;;;6.40;41.60;;;;;;5023402;28;20458;-60
2021/04/14 11:34:19;;;;;;;8.83;3.00;;;6.40;41.50;;;;;;5021937;28;20448;-59
2021/04/14 11:36:56;;;;;;;4.13;2.93;;;6.50;41.00;;;;;;5024144;28;20966;-59
2021/04/14 11:39:22;;;;;;;6.40;3.00;;;6.60;41.20;;;;;;5027564;28;20454;-59
2021/04/14 11:42:02;;;;;;;5.23;3.70;;;6.60;41.80;;;;;;5022752;28;20435;-59
2021/04/14 11:44:50;;;;;;;4.00;3.13;;;6.70;42.00;;;;;;5022632;28;20430;-60
2021/04/14 11:47:27;;;;;;;13.70;3.43;;;6.80;41.90;;;;;;5020732;28;20441;-58
2021/04/14 11:49:54;;;;;;;6.17;3.20;;;6.80;42.20;;;;;;5021116;28;20466;-59
2021/04/14 11:52:31;;;;;;;8.23;3.07;;;6.80;42.20;;;;;;5016981;28;20922;-59
2021/04/14 11:54:57;;;;;;;7.07;2.90;;;6.80;42.30;;;;;;5027651;28;20441;-59
2021/04/14 11:57:24;;;;;;;3.93;3.03;;;6.80;42.60;;;;;;5019490;28;20986;-59
2021/04/14 12:00:10;;;;;;;5.83;2.93;;;6.80;42.80;;;;;;5024849;28;21001;-60
2021/04/14 12:02:39;;;;;;;5.07;3.10;;;6.80;43.20;;;;;;5024098;28;20434;-59
2021/04/14 12:05:07;;;;;;;4.90;3.67;;;6.70;43.50;;;;;;5024676;28;20430;-59
2021/04/14 12:07:34;;;;;;;4.77;3.70;;;6.60;43.70;;;;;;5027327;28;20436;-58
2021/04/14 12:09:59;;;;;;;6.80;3.60;;;6.60;43.50;;;;;;5018640;28;20794;-59
2021/04/14 12:12:25;;;;;;;6.90;4.03;;;6.50;43.40;;;;;;5025378;28;20496;-60
2021/04/14 12:14:52;;;;;;;12.97;4.23;;;6.40;43.90;;;;;;5023277;28;20266;-59
2021/04/14 12:17:18;;;;;;;9.50;3.70;;;6.40;43.50;;;;;;5020846;28;20237;-59
2021/04/14 12:19:44;;;;;;;5.10;3.80;;;6.40;43.50;;;;;;5024086;28;20477;-59
2021/04/14 12:22:12;;;;;;;7.43;3.47;;;6.40;43.20;;;;;;5027010;28;20512;-59
2021/04/14 12:24:37;;;;;;;6.27;3.30;;;6.40;43.30;;;;;;5024334;28;20427;-59
2021/04/14 12:27:06;;;;;;;4.70;3.30;;;6.40;43.40;;;;;;5024394;28;20523;-59
2021/04/14 12:29:32;;;;;;;4.27;3.40;;;6.40;43.50;;;;;;5023674;28;20747;-59
2021/04/14 12:31:58;;;;;;;4.50;3.40;;;6.30;43.50;;;;;;5025087;28;20465;-58
2021/04/14 12:34:26;;;;;;;5.90;3.70;;;6.40;43.60;;;;;;5050067;28;20179;-60
2021/04/14 12:36:52;;;;;;;6.13;2.70;;;6.40;43.70;;;;;;5050636;28;20176;-59
2021/04/14 12:39:17;;;;;;;3.43;3.07;;;6.50;43.60;;;;;;5050730;28;20559;-60
2021/04/14 12:41:43;;;;;;;6.43;3.60;;;6.50;42.30;;;;;;5044068;28;20454;-60
2021/04/14 12:44:10;;;;;;;4.70;3.23;;;6.50;41.40;;;;;;5043220;28;20241;-58
2021/04/14 12:46:43;;;;;;;6.23;3.20;;;6.50;41.50;;;;;;5045837;28;20426;-59
2021/04/14 12:49:14;;;;;;;4.57;3.10;;;6.50;41.50;;;;;;5042421;28;20474;-59
2021/04/14 12:51:47;;;;;;;4.23;3.30;;;6.60;41.60;;;;;;5044518;28;20439;-58
2021/04/14 12:54:32;;;;;;;8.87;3.90;;;6.60;41.70;;;;;;5039572;28;20435;-58
2021/04/14 12:57:08;;;;;;;8.73;3.60;;;6.70;41.60;;;;;;5019976;28;20501;-58
2021/04/14 12:59:51;;;;;;;5.57;3.50;;;6.80;40.90;;;;;;5023395;28;20470;-58
2021/04/14 13:02:36;;;;;;;7.37;4.03;;;6.90;40.70;;;;;;5030585;28;20926;-58
2021/04/14 13:05:01;;;;;;;4.23;3.20;;;7.00;40.60;;;;;;5025407;28;20510;-58
2021/04/14 13:07:43;;;;;;;3.40;2.97;;;7.30;40.60;;;;;;5025189;28;20522;-58